Terminal Aerodrome Forecast
Issued by NWS

Home | Current Version | Previous Version | Graphics & Text | Print | Product List | Glossary On
Versions: 1 2 3 4 5 6 7 8 9 10 11 12
000
FTUS43 KIWX 091100
TAFSBN
TAF
KSBN 091120Z 0912/1012 26004KT P6SM SCT070
     FM091400 28007KT P6SM BKN060
     FM091900 31010KT P6SM SCT060=

USA.gov is the U.S. government's official web portal to all federal, state and local government web resources and services.